Terminal Aerodrome Forecast
Issued by NWS

Home | Current Version | Previous Version | Text Only | Print | Product List | Glossary On
Versions: 1 2 3 4 5 6 7 8 9 10 11 12 13 14 15 16 17 18 19 20 21 22 23 24 25 26 27 28 29
000
FTUS43 KDMX 290520
TAFMCW
TAF
KMCW 290520Z 2906/3006 15010KT 5SM -TSRA BR OVC005CB
     FM290900 18008KT 1SM BR OVC004
     FM291500 20010KT 5SM BR BKN006
     FM291630 21008KT P6SM SCT020 BKN150
     FM291900 20009KT P6SM VCSH BKN050
     FM300200 26005KT 5SM BR BKN030=

USA.gov is the U.S. government's official web portal to all federal, state and local government web resources and services.